Chelsea, United Kingdom
Current Conditions -  °F | °C
As of 11:50 AM on Friday 28 Nov 2014 (Local Time) from EGLC Reporting Station
Broken Clouds Broken Clouds  
Wind Chill: 52°   Ceiling: 800
Heat Index: 52°   Visibility: 4mi
Dew Point: 48°   Wind: 16mph
Humidity: 88%   Direction: 90°E
Pressure: 29.62"   Gusts: NA
Location:  51.49°N, 0.17°W
Report Text: EGLC 281150Z 09014KT 7000 BKN008 11/09 Q1003
Loading
Personal Weather Stations






























Interactive Weather Map New forecast layout! Learn more

10-Day Weather Forecast

Advertisements
Track Severe Weather on mobile